Time;durP1;ratioP1;P1;durP2;ratioP2;P2;SDS_P1;SDS_P2;PMS_P1;PMS_P2;Temp;Humidity;BMP_temperature;BMP_pressure;BME280_temperature;BME280_humidity;BME280_pressure;Samples;Min_cycle;Max_cycle;Signal;HPM_P1;HPM_P2
2021/04/28 00:00:07;;;;;;;7.13;4.23;;;;;;;6.58;49.33;100816.38;5018102;28;20691;-73
2021/04/28 00:02:33;;;;;;;5.40;4.70;;;;;;;7.36;47.90;100803.69;5000719;28;20198;-72
2021/04/28 00:04:59;;;;;;;5.67;4.17;;;;;;;6.81;49.11;100805.75;5017672;28;20418;-71
2021/04/28 00:07:25;;;;;;;4.57;3.90;;;;;;;6.67;49.84;100808.00;5018173;28;20257;-70
2021/04/28 00:09:50;;;;;;;4.83;4.43;;;;;;;6.93;48.61;100806.91;5019355;28;20493;-70
2021/04/28 00:12:15;;;;;;;4.37;3.97;;;;;;;6.79;48.85;100802.25;5018767;28;20194;-71
2021/04/28 00:14:40;;;;;;;5.03;4.50;;;;;;;6.58;49.84;100808.63;5018025;28;20181;-71
2021/04/28 00:17:06;;;;;;;5.30;4.30;;;;;;;6.86;49.06;100800.69;5021282;28;20175;-72
2021/04/28 00:19:31;;;;;;;5.30;4.33;;;;;;;6.63;49.90;100806.16;5020903;28;20187;-72
2021/04/28 00:21:57;;;;;;;5.53;4.07;;;;;;;6.63;49.15;100795.81;5021467;28;20174;-70
2021/04/28 00:24:22;;;;;;;4.93;4.50;;;;;;;6.54;49.93;100801.59;5020887;28;20254;-71
2021/04/28 00:26:48;;;;;;;5.07;4.23;;;;;;;6.27;49.77;100796.53;5021148;28;20199;-71
2021/04/28 00:29:13;;;;;;;4.83;4.43;;;;;;;6.72;49.40;100793.47;5021067;28;20289;-72
2021/04/28 00:31:38;;;;;;;6.03;4.53;;;;;;;6.42;50.60;100798.69;5020590;28;20564;-72
2021/04/28 00:34:04;;;;;;;4.80;4.30;;;;;;;6.68;49.92;100793.31;5020950;28;20175;-72
2021/04/28 00:36:29;;;;;;;4.73;4.33;;;;;;;6.57;50.00;100787.84;5021042;28;20179;-74
2021/04/28 00:38:55;;;;;;;4.70;4.20;;;;;;;6.63;49.05;100792.31;5020634;28;20561;-70
2021/04/28 00:41:20;;;;;;;4.70;4.30;;;;;;;6.33;50.62;100786.38;5020422;28;20186;-71
2021/04/28 00:43:45;;;;;;;4.60;4.20;;;;;;;6.77;49.93;100778.03;5021208;28;20201;-71
2021/04/28 00:46:11;;;;;;;7.73;4.40;;;;;;;6.45;50.19;100784.94;5020017;28;20233;-72
2021/04/28 00:48:37;;;;;;;5.00;4.23;;;;;;;6.09;51.06;100785.66;5019819;28;20646;-71
2021/04/28 00:51:03;;;;;;;4.90;4.30;;;;;;;6.33;50.70;100781.19;5020867;28;20251;-71
2021/04/28 00:53:29;;;;;;;5.60;4.27;;;;;;;6.11;51.26;100784.88;5020455;28;20167;-71
2021/04/28 00:55:55;;;;;;;4.80;4.30;;;;;;;6.73;50.15;100777.06;5020279;28;20775;-70
2021/04/28 00:58:22;;;;;;;5.90;4.07;;;;;;;6.58;49.70;100776.66;5020670;28;20182;-73
2021/04/28 01:00:48;;;;;;;6.93;5.17;;;;;;;6.43;50.03;100774.53;5020379;28;20421;-72
2021/04/28 01:03:14;;;;;;;4.40;4.00;;;;;;;6.51;50.29;100782.53;5020263;28;20438;-71
2021/04/28 01:05:39;;;;;;;5.17;4.70;;;;;;;6.07;51.00;100776.16;5020735;28;20421;-70
2021/04/28 01:08:06;;;;;;;6.27;4.00;;;;;;;6.30;50.75;100773.31;5019996;28;20226;-71
2021/04/28 01:10:33;;;;;;;4.70;4.20;;;;;;;6.21;51.11;100775.66;5019926;28;20203;-71
2021/04/28 01:12:59;;;;;;;4.50;4.10;;;;;;;6.44;50.33;100763.38;5020616;28;20821;-71
2021/04/28 01:15:30;;;;;;;5.03;4.50;;;;;;;6.69;49.21;100754.50;5019139;28;20433;-71
2021/04/28 01:17:56;;;;;;;4.40;3.80;;;;;;;6.23;50.22;100755.88;5020163;28;20258;-71
2021/04/28 01:20:23;;;;;;;5.13;4.30;;;;;;;6.02;51.05;100762.22;5003497;28;20402;-72
2021/04/28 01:22:49;;;;;;;3.80;3.50;;;;;;;6.44;50.41;100757.28;5020075;28;20456;-71
2021/04/28 01:25:19;;;;;;;4.40;4.00;;;;;;;5.97;50.94;100750.81;5019225;28;20725;-71
2021/04/28 01:27:47;;;;;;;4.83;4.30;;;;;;;6.05;51.55;100748.50;5019663;28;20484;-71
2021/04/28 01:30:14;;;;;;;4.87;4.20;;;;;;;6.34;50.60;100749.25;5002707;28;20737;-71
2021/04/28 01:32:46;;;;;;;4.70;4.20;;;;;;;6.01;50.69;100744.91;5003093;28;20449;-71
2021/04/28 01:35:15;;;;;;;4.63;4.20;;;;;;;5.93;51.21;100743.78;5020226;28;20425;-72
2021/04/28 01:37:42;;;;;;;4.57;3.90;;;;;;;6.35;50.50;100734.63;5019288;28;20452;-72
2021/04/28 01:40:09;;;;;;;4.57;4.17;;;;;;;6.65;49.06;100741.44;5019417;28;20404;-72
2021/04/28 01:42:34;;;;;;;10.57;4.13;;;;;;;7.19;47.35;100740.16;5018918;28;20487;-71
2021/04/28 01:45:00;;;;;;;6.50;4.30;;;;;;;6.47;48.64;100734.94;5002681;28;20426;-72
2021/04/28 01:47:26;;;;;;;4.40;4.00;;;;;;;7.02;48.34;100730.28;5003319;28;20251;-71
2021/04/28 01:49:52;;;;;;;4.20;3.77;;;;;;;6.97;48.11;100730.97;5018016;28;20875;-71
2021/04/28 01:52:18;;;;;;;5.00;4.33;;;;;;;7.01;48.23;100731.13;5019748;28;20179;-71
2021/04/28 01:54:46;;;;;;;4.20;3.80;;;;;;;6.61;49.09;100724.94;5020216;28;20437;-71
2021/04/28 01:57:11;;;;;;;4.47;3.97;;;;;;;7.08;47.74;100721.78;5019532;28;20421;-71
2021/04/28 01:59:38;;;;;;;5.70;4.07;;;;;;;6.63;49.12;100732.75;5018920;28;20424;-71
2021/04/28 02:02:05;;;;;;;4.13;3.83;;;;;;;6.41;49.00;100732.19;5019978;28;20162;-72
2021/04/28 02:04:30;;;;;;;4.50;3.63;;;;;;;6.28;49.34;100730.09;5018950;28;20430;-73
2021/04/28 02:06:56;;;;;;;4.33;3.83;;;;;;;5.77;50.74;100726.09;5018820;28;20505;-72
2021/04/28 02:09:21;;;;;;;18.30;12.93;;;;;;;6.46;49.40;100724.56;5021434;28;20623;-73
2021/04/28 02:11:46;;;;;;;4.70;4.07;;;;;;;6.14;50.14;100724.56;5020533;28;20197;-72
2021/04/28 02:14:14;;;;;;;4.33;3.93;;;;;;;6.42;49.45;100717.53;5019230;28;20171;-72
2021/04/28 02:16:40;;;;;;;4.53;4.10;;;;;;;6.54;48.42;100717.84;5002636;28;20171;-72
2021/04/28 02:19:07;;;;;;;5.00;4.60;;;;;;;6.52;49.44;100714.34;5018895;28;20830;-71
2021/04/28 02:21:32;;;;;;;6.10;4.40;;;;;;;6.78;48.59;100709.81;5018170;28;20476;-71
2021/04/28 02:23:58;;;;;;;5.63;4.17;;;;;;;6.86;47.94;100710.00;5018989;28;20544;-70
2021/04/28 02:26:24;;;;;;;4.30;3.90;;;;;;;6.05;49.59;100713.13;5018802;28;20262;-71
2021/04/28 02:28:49;;;;;;;5.50;4.03;;;;;;;5.93;49.67;100715.34;5018230;28;20270;-72
2021/04/28 02:31:15;;;;;;;4.80;4.30;;;;;;;5.78;50.32;100710.59;5018962;28;20455;-71
2021/04/28 02:33:40;;;;;;;5.20;4.70;;;;;;;6.13;49.94;100705.56;5018718;28;20171;-71
2021/04/28 02:36:05;;;;;;;6.70;4.60;;;;;;;6.44;49.07;100710.66;5019661;28;20475;-73
2021/04/28 02:38:39;;;;;;;4.90;4.40;;;;;;;5.56;50.72;100717.75;5018565;28;20198;-72
2021/04/28 02:41:05;;;;;;;4.93;4.40;;;;;;;6.12;50.23;100708.13;5018722;28;20509;-72
2021/04/28 02:43:31;;;;;;;4.60;4.20;;;;;;;5.63;50.79;100708.44;5019445;28;20500;-71
2021/04/28 02:45:57;;;;;;;5.93;4.73;;;;;;;6.65;48.59;100698.28;5018233;28;20406;-71
2021/04/28 02:48:24;;;;;;;5.60;4.70;;;;;;;6.31;48.52;100693.97;5001629;28;20437;-70
2021/04/28 02:50:51;;;;;;;6.20;5.60;;;;;;;6.57;48.05;100692.88;5018194;28;20827;-71
2021/04/28 02:53:16;;;;;;;4.50;4.10;;;;;;;6.58;49.03;100696.38;5018622;28;20457;-72
2021/04/28 02:55:42;;;;;;;5.13;4.17;;;;;;;6.56;48.40;100695.44;5018098;28;21569;-71
2021/04/28 02:58:08;;;;;;;4.87;4.37;;;;;;;6.22;48.47;100695.47;5019107;28;20253;-71
2021/04/28 03:00:33;;;;;;;5.03;4.40;;;;;;;6.30;48.98;100692.19;5018671;28;20499;-71
2021/04/28 03:02:59;;;;;;;5.40;4.77;;;;;;;6.88;47.35;100688.47;5018312;28;20491;-71
2021/04/28 03:05:24;;;;;;;5.70;4.30;;;;;;;5.88;49.42;100699.66;5019211;28;20454;-72
2021/04/28 03:07:51;;;;;;;10.40;5.53;;;;;;;6.20;49.33;100689.34;5018740;28;20170;-71
2021/04/28 03:10:17;;;;;;;7.00;4.40;;;;;;;5.62;50.13;100692.91;5001545;28;20878;-72
2021/04/28 03:12:44;;;;;;;7.47;4.40;;;;;;;6.51;48.85;100686.72;5019132;28;20406;-72
2021/04/28 03:15:12;;;;;;;5.00;4.40;;;;;;;6.39;48.65;100687.25;5018346;28;20423;-72
2021/04/28 03:17:37;;;;;;;5.10;4.60;;;;;;;5.40;50.62;100690.53;5018206;28;20700;-71
2021/04/28 03:20:04;;;;;;;4.40;3.97;;;;;;;5.84;50.34;100684.03;5018809;28;20504;-70
2021/04/28 03:22:29;;;;;;;7.83;5.00;;;;;;;6.27;49.51;100677.47;5017668;28;20175;-71
2021/04/28 03:24:54;;;;;;;6.30;4.63;;;;;;;5.92;50.14;100679.06;5018486;28;20461;-71
2021/04/28 03:27:24;;;;;;;5.63;4.90;;;;;;;5.65;51.05;100680.91;5018271;28;20221;-72
2021/04/28 03:29:50;;;;;;;6.63;4.70;;;;;;;5.86;49.25;100674.63;5018238;28;20195;-72
2021/04/28 03:32:16;;;;;;;5.30;4.60;;;;;;;5.66;50.01;100680.09;5017318;28;20484;-72
2021/04/28 03:34:41;;;;;;;4.97;4.47;;;;;;;5.55;51.01;100673.75;5018907;28;20430;-72
2021/04/28 03:37:06;;;;;;;4.70;4.30;;;;;;;5.19;51.83;100683.00;5018241;28;20278;-71
2021/04/28 03:39:32;;;;;;;9.60;5.00;;;;;;;5.30;51.50;100675.56;5018228;28;20167;-72
2021/04/28 03:41:57;;;;;;;5.43;4.83;;;;;;;5.76;50.22;100673.44;5018622;28;20167;-72
2021/04/28 03:44:23;;;;;;;7.93;5.27;;;;;;;5.69;50.51;100661.19;5018352;28;20167;-71
2021/04/28 03:46:48;;;;;;;6.20;4.93;;;;;;;5.67;50.69;100662.84;5017707;28;20260;-72
2021/04/28 03:49:15;;;;;;;6.50;5.53;;;;;;;5.60;51.42;100672.13;5018699;28;20191;-71
2021/04/28 03:51:41;;;;;;;8.80;5.17;;;;;;;6.00;50.11;100662.94;5021241;28;20175;-71
2021/04/28 03:54:06;;;;;;;5.53;5.03;;;;;;;5.06;52.22;100674.00;5021707;28;20417;-72
2021/04/28 03:56:31;;;;;;;7.27;5.50;;;;;;;5.80;50.84;100664.06;5022052;28;20181;-71
2021/04/28 03:58:57;;;;;;;5.57;5.07;;;;;;;5.01;52.54;100677.28;5021846;28;20167;-71
2021/04/28 04:01:22;;;;;;;6.00;5.37;;;;;;;5.55;50.97;100663.41;5021535;28;20437;-71
2021/04/28 04:03:48;;;;;;;4.97;4.47;;;;;;;5.28;51.69;100673.81;5021816;28;20190;-71
2021/04/28 04:06:13;;;;;;;5.70;5.20;;;;;;;5.34;52.05;100666.22;5021540;28;20175;-71
2021/04/28 04:08:39;;;;;;;6.77;4.60;;;;;;;5.12;51.98;100673.31;5022654;28;20418;-70
2021/04/28 04:11:04;;;;;;;5.97;4.83;;;;;;;5.34;52.24;100668.81;5023034;28;20474;-73
2021/04/28 04:13:30;;;;;;;5.47;4.97;;;;;;;5.71;50.59;100663.00;5021463;28;20167;-73
2021/04/28 04:15:55;;;;;;;5.10;4.60;;;;;;;5.34;51.72;100663.63;5021315;28;20185;-72
2021/04/28 04:18:20;;;;;;;7.63;4.80;;;;;;;5.63;50.90;100661.91;5015322;28;20491;-72
2021/04/28 04:20:46;;;;;;;6.67;5.10;;;;;;;5.28;51.60;100661.75;5020228;28;20186;-72
2021/04/28 04:23:11;;;;;;;6.07;4.93;;;;;;;5.17;52.27;100663.16;5020907;28;20178;-72
2021/04/28 04:25:37;;;;;;;6.03;5.40;;;;;;;5.40;51.38;100663.81;5021508;28;20171;-72
2021/04/28 04:28:03;;;;;;;8.60;5.00;;;;;;;5.70;50.40;100663.81;5021162;28;20229;-72
2021/04/28 04:30:28;;;;;;;8.50;4.70;;;;;;;6.22;49.89;100663.50;5020679;28;20476;-71
2021/04/28 04:32:53;;;;;;;6.67;5.43;;;;;;;6.79;47.17;100666.66;5021284;28;20410;-71
2021/04/28 04:35:20;;;;;;;5.70;5.03;;;;;;;6.83;47.34;100663.28;5020566;28;20183;-71
2021/04/28 04:37:45;;;;;;;5.37;4.87;;;;;;;8.20;43.66;100655.75;5020012;28;20210;-71
2021/04/28 04:40:10;;;;;;;5.77;4.80;;;;;;;7.38;44.56;100653.28;5021340;28;20405;-71
2021/04/28 04:42:36;;;;;;;6.27;5.17;;;;;;;8.20;42.92;100652.25;5020887;28;20179;-72
2021/04/28 04:45:01;;;;;;;6.67;5.40;;;;;;;8.19;43.85;100653.13;5020922;28;20232;-71
2021/04/28 04:47:27;;;;;;;5.73;5.10;;;;;;;7.90;43.53;100649.16;5019363;28;20529;-72
2021/04/28 04:49:52;;;;;;;7.40;5.60;;;;;;;8.82;41.41;100645.53;5017282;28;20222;-72
2021/04/28 04:52:18;;;;;;;5.77;5.17;;;;;;;8.94;41.50;100648.31;5020610;28;20182;-72
2021/04/28 04:54:43;;;;;;;7.93;5.53;;;;;;;8.75;42.75;100642.84;5021086;28;20539;-72
2021/04/28 04:57:08;;;;;;;7.23;6.20;;;;;;;7.26;45.49;100653.88;5016995;28;20510;-72
2021/04/28 04:59:34;;;;;;;6.00;5.40;;;;;;;6.88;46.15;100649.59;5020910;28;20185;-72
2021/04/28 05:01:59;;;;;;;6.83;5.80;;;;;;;6.82;45.92;100653.75;5019825;28;20187;-72
2021/04/28 05:04:24;;;;;;;6.43;5.83;;;;;;;6.85;46.90;100657.31;5020334;28;20528;-72
2021/04/28 05:06:52;;;;;;;8.03;5.70;;;;;;;6.92;45.77;100642.78;5017750;28;20194;-71
2021/04/28 05:09:17;;;;;;;7.60;6.03;;;;;;;6.67;46.74;100643.91;5018183;28;20293;-72
2021/04/28 05:11:43;;;;;;;9.00;6.20;;;;;;;6.15;47.29;100646.94;5019514;28;20533;-73
2021/04/28 05:14:08;;;;;;;8.97;6.50;;;;;;;7.24;45.79;100632.25;5020080;28;20195;-72
2021/04/28 05:16:34;;;;;;;7.50;5.60;;;;;;;6.85;46.01;100635.72;5020852;28;20167;-72
2021/04/28 05:18:59;;;;;;;7.20;5.87;;;;;;;6.86;45.85;100627.06;5020135;28;20206;-72
2021/04/28 05:21:24;;;;;;;7.67;6.83;;;;;;;6.88;45.58;100634.03;5019876;28;20533;-72
2021/04/28 05:23:50;;;;;;;6.97;6.27;;;;;;;7.21;44.52;100635.66;5019913;28;20229;-72
2021/04/28 05:26:15;;;;;;;8.40;6.00;;;;;;;7.52;44.46;100638.00;5020211;28;20222;-72
2021/04/28 05:28:40;;;;;;;7.83;6.17;;;;;;;7.66;43.69;100635.69;5020967;28;20178;-72
2021/04/28 05:31:06;;;;;;;10.00;6.50;;;;;;;8.50;41.71;100630.31;5018906;28;20195;-72
2021/04/28 05:33:31;;;;;;;8.47;5.90;;;;;;;9.02;40.07;100625.03;5019395;28;20207;-74
2021/04/28 05:35:57;;;;;;;8.47;5.63;;;;;;;9.62;38.05;100625.81;5019672;28;20190;-72
2021/04/28 05:38:22;;;;;;;7.50;5.97;;;;;;;10.76;36.05;100623.41;5019460;28;20210;-73
2021/04/28 05:40:48;;;;;;;12.30;7.07;;;;;;;11.85;34.46;100624.78;5000533;28;20445;-73
2021/04/28 05:43:13;;;;;;;7.03;6.33;;;;;;;10.69;35.78;100621.59;5020251;28;20171;-73
2021/04/28 05:45:43;;;;;;;9.30;6.30;;;;;;;9.03;39.05;100632.84;5019529;28;20233;-73
2021/04/28 05:48:10;;;;;;;7.47;6.43;;;;;;;9.27;38.88;100621.91;5012485;28;20188;-72
2021/04/28 05:50:35;;;;;;;7.63;6.17;;;;;;;9.94;37.94;100622.66;5009362;28;20477;-73
2021/04/28 05:53:01;;;;;;;10.13;6.60;;;;;;;8.78;39.68;100626.41;5018094;28;20869;-73
2021/04/28 05:55:26;;;;;;;6.77;6.07;;;;;;;9.14;39.36;100624.34;5018812;28;20444;-73
2021/04/28 05:57:51;;;;;;;9.17;6.20;;;;;;;8.09;40.87;100633.88;5019261;28;20209;-71
2021/04/28 06:00:17;;;;;;;6.90;6.30;;;;;;;8.23;40.73;100622.03;5018569;28;20552;-74
2021/04/28 06:02:43;;;;;;;8.03;6.50;;;;;;;9.68;38.42;100619.78;5015559;28;20202;-73
2021/04/28 06:05:09;;;;;;;7.47;6.50;;;;;;;9.12;39.04;100620.81;5019531;28;20278;-74
2021/04/28 06:07:34;;;;;;;11.27;6.63;;;;;;;8.98;39.66;100624.09;5020539;28;20186;-73
2021/04/28 06:10:00;;;;;;;9.23;6.63;;;;;;;10.49;36.24;100617.13;5019873;28;20472;-73
2021/04/28 06:12:25;;;;;;;8.60;6.40;;;;;;;9.65;37.20;100622.34;5017595;28;20238;-72
2021/04/28 06:14:50;;;;;;;7.77;6.27;;;;;;;9.45;38.35;100620.38;5014856;28;20245;-69
2021/04/28 06:17:16;;;;;;;9.03;7.37;;;;;;;11.07;34.96;100613.19;5011463;28;20214;-69
2021/04/28 06:19:41;;;;;;;11.67;6.60;;;;;;;9.04;38.32;100621.59;5023999;28;20175;-69
2021/04/28 06:22:06;;;;;;;8.30;6.97;;;;;;;10.91;35.08;100605.25;5025683;28;20205;-70
2021/04/28 06:24:32;;;;;;;13.17;6.83;;;;;;;10.42;35.68;100607.53;5031674;28;20313;-69
2021/04/28 06:26:57;;;;;;;7.40;6.70;;;;;;;10.72;35.37;100601.66;5030559;28;20261;-69
2021/04/28 06:29:23;;;;;;;8.60;6.57;;;;;;;10.32;35.28;100601.31;5035135;28;20271;-69
2021/04/28 06:31:49;;;;;;;7.43;6.73;;;;;;;10.48;35.45;100597.13;5014953;28;20187;-68
2021/04/28 06:34:14;;;;;;;8.10;6.77;;;;;;;13.30;30.02;100586.34;5018863;28;20202;-70
2021/04/28 06:36:39;;;;;;;9.53;6.90;;;;;;;14.42;28.58;100577.81;5018523;28;20189;-69
2021/04/28 06:39:05;;;;;;;7.03;6.33;;;;;;;13.32;29.18;100581.97;5016209;28;20404;-69
2021/04/28 06:41:31;;;;;;;7.80;6.97;;;;;;;16.11;25.30;100580.16;5017875;28;20193;-71
2021/04/28 06:43:56;;;;;;;6.73;6.10;;;;;;;16.37;24.80;100573.59;5018432;28;20185;-69
2021/04/28 06:46:21;;;;;;;6.97;6.37;;;;;;;15.84;25.17;100576.19;5017696;28;20407;-69
2021/04/28 06:48:47;;;;;;;7.60;6.40;;;;;;;14.00;27.79;100580.75;5018448;28;20202;-70
2021/04/28 06:51:12;;;;;;;8.43;6.10;;;;;;;14.56;26.51;100577.66;5014546;28;20194;-69
2021/04/28 06:53:37;;;;;;;8.27;6.20;;;;;;;13.50;28.33;100580.19;5016162;28;20229;-70
2021/04/28 06:56:03;;;;;;;6.47;5.87;;;;;;;14.92;26.28;100570.34;5018432;28;20177;-73
2021/04/28 06:58:31;;;;;;;7.57;6.87;;;;;;;13.34;27.42;100574.13;5018192;28;20175;-73
2021/04/28 07:00:56;;;;;;;7.60;6.80;;;;;;;15.90;25.01;100567.34;5015832;28;20454;-71
2021/04/28 07:03:21;;;;;;;7.27;6.60;;;;;;;17.08;23.28;100556.53;5015516;28;20528;-70
2021/04/28 07:05:47;;;;;;;7.60;6.90;;;;;;;15.19;25.80;100561.28;5002912;28;20267;-72
2021/04/28 07:08:12;;;;;;;7.43;6.63;;;;;;;17.13;23.31;100551.16;4998153;28;20492;-71
2021/04/28 07:10:37;;;;;;;7.60;6.90;;;;;;;14.75;25.56;100563.53;4998706;28;20214;-74
2021/04/28 07:13:05;;;;;;;7.50;6.83;;;;;;;17.32;22.33;100551.69;4999101;28;20179;-68
2021/04/28 07:15:32;;;;;;;7.60;7.00;;;;;;;16.78;23.12;100550.09;5017556;28;20450;-70
2021/04/28 07:17:57;;;;;;;7.97;7.13;;;;;;;18.37;21.34;100538.66;5017792;28;20732;-70
2021/04/28 07:20:22;;;;;;;7.87;7.17;;;;;;;19.47;20.01;100527.69;5017308;28;20488;-70
2021/04/28 07:22:48;;;;;;;7.60;6.90;;;;;;;14.12;25.83;100551.81;5016765;28;20282;-71
2021/04/28 07:25:13;;;;;;;9.23;6.73;;;;;;;15.20;25.01;100541.16;5018134;28;20262;-71
2021/04/28 07:27:40;;;;;;;12.30;7.53;;;;;;;15.02;24.98;100537.88;5015018;28;20194;-70
2021/04/28 07:30:06;;;;;;;7.83;7.13;;;;;;;16.43;23.53;100523.53;5021351;28;20225;-72
2021/04/28 07:32:32;;;;;;;8.20;7.40;;;;;;;19.96;19.40;100520.03;5016264;28;20450;-69
2021/04/28 07:34:57;;;;;;;9.07;7.50;;;;;;;18.58;20.81;100526.69;5021375;28;20389;-71
2021/04/28 07:37:22;;;;;;;10.40;7.10;;;;;;;20.09;19.25;100516.03;5021597;28;20210;-70
2021/04/28 07:39:48;;;;;;;8.50;7.23;;;;;;;19.59;19.61;100513.22;5015834;28;20175;-69
2021/04/28 07:42:13;;;;;;;8.53;7.07;;;;;;;19.48;19.01;100518.84;5008860;28;20606;-71
2021/04/28 07:44:38;;;;;;;7.90;6.93;;;;;;;15.14;24.04;100529.84;5009307;28;20183;-72
2021/04/28 07:47:04;;;;;;;8.33;7.47;;;;;;;17.21;22.00;100516.75;5002271;28;20182;-72
2021/04/28 07:49:29;;;;;;;8.10;7.30;;;;;;;18.64;20.62;100512.44;5001931;28;20247;-73
2021/04/28 07:51:54;;;;;;;8.10;7.30;;;;;;;20.74;18.22;100508.50;5015319;28;20191;-73
2021/04/28 07:54:20;;;;;;;7.17;6.57;;;;;;;21.16;17.27;100497.25;5028024;28;20194;-71
2021/04/28 07:56:46;;;;;;;7.70;6.60;;;;;;;19.95;18.42;100507.69;5035394;28;20210;-71
2021/04/28 07:59:13;;;;;;;6.60;5.90;;;;;;;21.26;17.44;100492.44;5021391;28;20509;-70
2021/04/28 08:01:38;;;;;;;11.47;7.37;;;;;;;20.20;18.74;100505.06;5012170;28;20453;-71
2021/04/28 08:04:04;;;;;;;6.80;6.27;;;;;;;17.88;21.44;100513.50;5014753;28;20429;-71
2021/04/28 08:06:30;;;;;;;10.67;6.83;;;;;;;16.89;22.80;100499.84;5019607;28;20182;-69
2021/04/28 08:08:55;;;;;;;7.77;7.07;;;;;;;18.30;20.97;100500.16;5018166;28;20210;-69
2021/04/28 08:11:21;;;;;;;9.50;7.00;;;;;;;18.98;20.24;100503.59;5021123;28;20493;-70
2021/04/28 08:13:47;;;;;;;7.60;6.87;;;;;;;19.66;18.84;100496.25;5021051;28;20471;-69
2021/04/28 08:16:14;;;;;;;7.23;6.40;;;;;;;17.45;21.57;100499.56;5021260;28;20177;-70
2021/04/28 08:18:39;;;;;;;9.10;6.63;;;;;;;15.78;23.13;100519.31;5020181;28;20460;-70
2021/04/28 08:21:05;;;;;;;7.20;6.60;;;;;;;17.27;22.22;100501.69;5020363;28;20425;-68
2021/04/28 08:23:30;;;;;;;7.67;6.97;;;;;;;17.78;21.29;100503.19;5019895;28;20273;-72
2021/04/28 08:26:03;;;;;;;6.87;6.20;;;;;;;19.00;19.98;100500.00;5026270;28;20178;-69
2021/04/28 08:28:29;;;;;;;7.80;7.00;;;;;;;16.54;22.74;100501.41;5021726;28;20265;-71
2021/04/28 08:30:54;;;;;;;7.13;6.40;;;;;;;17.53;21.46;100496.75;5019572;28;20814;-71
2021/04/28 08:33:20;;;;;;;7.83;7.03;;;;;;;18.45;20.24;100490.97;5016688;28;20571;-71
2021/04/28 08:35:45;;;;;;;10.20;6.57;;;;;;;19.92;18.20;100486.66;5021515;28;20274;-70
2021/04/28 08:38:10;;;;;;;7.03;6.43;;;;;;;18.05;20.61;100495.53;5020128;28;20179;-70
2021/04/28 08:40:36;;;;;;;10.47;6.63;;;;;;;18.31;19.68;100483.44;5017800;28;20524;-71
2021/04/28 08:43:03;;;;;;;7.07;6.47;;;;;;;16.05;22.02;100521.53;5006300;28;20184;-72
2021/04/28 08:45:28;;;;;;;7.47;6.87;;;;;;;18.85;19.91;100481.94;5004025;28;20187;-71
2021/04/28 08:47:54;;;;;;;7.33;6.20;;;;;;;18.21;20.57;100479.28;5019672;28;20523;-72
2021/04/28 08:50:19;;;;;;;7.27;6.67;;;;;;;16.65;21.58;100497.66;5020232;28;20654;-71
2021/04/28 08:52:45;;;;;;;7.20;6.50;;;;;;;18.96;20.13;100479.03;5020441;28;20228;-70
2021/04/28 08:55:13;;;;;;;7.23;6.63;;;;;;;17.93;20.39;100483.50;5019343;28;20181;-72
2021/04/28 08:57:38;;;;;;;7.23;6.63;;;;;;;16.22;22.44;100490.56;5019003;28;20218;-71
2021/04/28 09:00:06;;;;;;;10.00;7.03;;;;;;;15.75;23.53;100489.56;5020441;28;20453;-71
2021/04/28 09:02:32;;;;;;;7.30;6.60;;;;;;;17.39;21.13;100479.47;5019944;28;20175;-70
2021/04/28 09:05:13;;;;;;;7.60;6.83;;;;;;;17.43;21.55;100477.66;5018587;28;20434;-71
2021/04/28 09:07:40;;;;;;;8.07;6.20;;;;;;;16.78;21.40;100484.28;5019920;28;20460;-69
2021/04/28 09:10:08;;;;;;;8.47;7.33;;;;;;;17.51;20.96;100473.91;5018941;28;20452;-71
2021/04/28 09:12:34;;;;;;;7.13;6.43;;;;;;;17.03;21.71;100470.63;5020314;28;20680;-70
2021/04/28 09:15:00;;;;;;;7.47;6.70;;;;;;;16.77;20.19;100482.53;5018955;28;20456;-71
2021/04/28 09:17:25;;;;;;;7.60;6.77;;;;;;;16.41;21.27;100477.09;5018871;28;20814;-71
2021/04/28 09:20:19;;;;;;;8.97;6.60;;;;;;;17.87;20.14;100464.28;5019002;28;20247;-70
2021/04/28 09:22:50;;;;;;;7.83;6.60;;;;;;;17.73;19.72;100464.66;5019369;28;20182;-71
2021/04/28 09:25:40;;;;;;;8.40;6.73;;;;;;;16.64;21.32;100472.25;5021367;28;20885;-70
2021/04/28 09:28:23;;;;;;;6.50;5.93;;;;;;;16.49;19.34;100460.28;5013416;28;20865;-71
2021/04/28 09:30:50;;;;;;;7.30;6.60;;;;;;;18.03;18.32;100449.00;5012612;28;20455;-69
2021/04/28 09:33:16;;;;;;;7.50;6.80;;;;;;;16.86;19.69;100463.03;5016632;28;20441;-71
2021/04/28 09:35:41;;;;;;;9.77;6.50;;;;;;;19.04;17.82;100441.78;5013643;28;20450;-70
2021/04/28 09:38:06;;;;;;;10.87;6.20;;;;;;;17.82;18.03;100456.50;4996028;28;20204;-70
2021/04/28 09:40:46;;;;;;;6.80;6.20;;;;;;;16.77;19.80;100453.59;5017777;28;20202;-70
2021/04/28 09:43:12;;;;;;;13.83;6.90;;;;;;;16.86;19.62;100449.88;5001072;28;20444;-70
2021/04/28 09:45:45;;;;;;;6.90;6.20;;;;;;;18.21;18.02;100442.34;5012954;28;20508;-70
2021/04/28 09:48:24;;;;;;;7.00;6.40;;;;;;;19.03;17.54;100435.66;5007449;28;20207;-70
2021/04/28 09:51:02;;;;;;;8.30;6.70;;;;;;;20.94;16.44;100419.47;4999791;28;20484;-71
2021/04/28 09:53:28;;;;;;;8.43;6.90;;;;;;;18.14;19.09;100431.97;4999814;28;20438;-71
2021/04/28 09:55:55;;;;;;;7.93;6.40;;;;;;;19.13;18.10;100428.28;5017073;28;20816;-71
2021/04/28 09:58:49;;;;;;;7.30;6.60;;;;;;;18.09;18.66;100417.16;5007944;28;20242;-70
2021/04/28 10:01:15;;;;;;;7.60;6.87;;;;;;;17.41;19.77;100432.88;4999549;28;20381;-71
2021/04/28 10:03:45;;;;;;;9.00;6.50;;;;;;;18.33;18.82;100415.63;4998268;28;20512;-70
2021/04/28 10:06:10;;;;;;;7.67;6.70;;;;;;;18.42;18.80;100420.66;5021004;28;20403;-71
2021/04/28 10:08:36;;;;;;;10.47;6.87;;;;;;;19.23;17.71;100407.72;5018605;28;20442;-71
2021/04/28 10:11:01;;;;;;;7.83;7.00;;;;;;;18.65;18.38;100411.22;5018095;28;20179;-72
2021/04/28 10:13:27;;;;;;;10.50;6.80;;;;;;;18.36;18.86;100407.63;5014992;28;20178;-72
2021/04/28 10:15:52;;;;;;;8.30;7.50;;;;;;;15.68;21.78;100411.72;5017930;28;20179;-72
2021/04/28 10:18:21;;;;;;;7.60;6.87;;;;;;;18.96;18.66;100395.34;5018169;28;20182;-70
2021/04/28 10:20:48;;;;;;;7.60;6.90;;;;;;;18.83;18.38;100393.94;5018706;28;20643;-70
2021/04/28 10:23:15;;;;;;;8.50;7.80;;;;;;;17.73;19.99;100393.47;5018822;28;20811;-70
2021/04/28 10:25:42;;;;;;;8.07;7.33;;;;;;;18.81;18.84;100387.88;5020519;28;20440;-69
2021/04/28 10:28:10;;;;;;;8.30;7.60;;;;;;;18.63;19.94;100383.97;5015388;28;20479;-72
2021/04/28 10:30:46;;;;;;;7.80;7.20;;;;;;;19.05;18.92;100375.72;5018232;28;20436;-70
2021/04/28 10:33:18;;;;;;;7.37;6.50;;;;;;;20.39;17.94;100372.94;5017848;28;20448;-69
2021/04/28 10:35:44;;;;;;;9.17;7.50;;;;;;;20.62;18.04;100372.09;5016692;28;20851;-72
2021/04/28 10:38:10;;;;;;;9.10;8.40;;;;;;;20.34;17.94;100364.31;5017718;28;20441;-70
2021/04/28 10:40:36;;;;;;;7.73;7.13;;;;;;;19.92;18.50;100359.66;5017954;28;20262;-70
2021/04/28 10:43:09;;;;;;;8.73;7.90;;;;;;;17.95;20.38;100372.69;5013127;28;20183;-68
2021/04/28 10:45:38;;;;;;;9.73;8.13;;;;;;;18.20;20.58;100379.94;5018345;28;20426;-73
2021/04/28 10:48:15;;;;;;;9.20;8.30;;;;;;;17.96;20.70;100364.72;5018403;28;20418;-72
2021/04/28 10:50:45;;;;;;;8.40;7.50;;;;;;;18.37;20.33;100361.84;5018074;28;20508;-74
2021/04/28 10:53:26;;;;;;;12.20;8.13;;;;;;;19.08;19.67;100362.41;5017323;28;20483;-77
2021/04/28 10:55:55;;;;;;;10.70;8.00;;;;;;;17.92;21.05;100372.78;4997756;28;20500;-74
2021/04/28 10:58:29;;;;;;;8.53;7.83;;;;;;;17.98;20.75;100348.88;5001572;28;20722;-75
2021/04/28 11:01:04;;;;;;;8.60;7.80;;;;;;;18.95;20.30;100355.75;4998479;28;20490;-76
2021/04/28 11:03:31;;;;;;;11.60;8.47;;;;;;;19.88;19.38;100340.38;5016526;28;20417;-75
2021/04/28 11:05:59;;;;;;;9.50;8.60;;;;;;;21.35;18.07;100340.94;5017770;28;20483;-71
2021/04/28 11:08:30;;;;;;;8.70;8.00;;;;;;;21.58;16.97;100338.28;4998009;28;20449;-72
2021/04/28 11:10:56;;;;;;;9.73;8.10;;;;;;;22.51;16.55;100335.91;5016975;28;20484;-72
2021/04/28 11:13:21;;;;;;;10.13;9.13;;;;;;;20.93;17.54;100328.53;5016670;28;20692;-72
2021/04/28 11:15:53;;;;;;;9.60;8.13;;;;;;;19.45;19.38;100353.25;5017938;28;20548;-72
2021/04/28 11:18:32;;;;;;;10.37;8.90;;;;;;;20.02;19.06;100334.59;5017623;28;20240;-73
2021/04/28 11:21:18;;;;;;;9.87;8.93;;;;;;;19.91;18.96;100331.47;5013976;28;20472;-74
2021/04/28 11:24:09;;;;;;;10.50;9.50;;;;;;;21.15;17.80;100333.81;5005406;28;20482;-73
2021/04/28 11:26:36;;;;;;;10.30;9.30;;;;;;;18.88;19.86;100346.28;5020708;28;20925;-72